Time;durP1;ratioP1;P1;durP2;ratioP2;P2;SDS_P1;SDS_P2;PMS_P1;PMS_P2;Temp;Humidity;BMP_temperature;BMP_pressure;BME280_temperature;BME280_humidity;BME280_pressure;Samples;Min_cycle;Max_cycle;Signal;HPM_P1;HPM_P2
2022/04/11 00:01:44;;;;;;;26.03;19.13;;;-0.70;99.90;;;;;;5096896;28;20225;-73
2022/04/11 00:04:11;;;;;;;34.63;23.30;;;-0.90;99.90;;;;;;5096920;28;20218;-73
2022/04/11 00:06:39;;;;;;;36.13;22.57;;;-0.70;99.90;;;;;;5096593;28;20644;-73
2022/04/11 00:09:07;;;;;;;32.37;21.47;;;-0.60;99.90;;;;;;5096014;28;20200;-73
2022/04/11 00:11:33;;;;;;;32.40;22.07;;;-0.80;99.90;;;;;;5096017;28;20261;-72
2022/04/11 00:14:01;;;;;;;32.77;20.83;;;-0.70;99.90;;;;;;5095948;28;20204;-73
2022/04/11 00:16:28;;;;;;;29.40;21.30;;;-0.90;99.90;;;;;;5095751;28;20732;-73
2022/04/11 00:18:55;;;;;;;29.13;21.43;;;-1.00;99.90;;;;;;5096079;28;20257;-73
2022/04/11 00:21:21;;;;;;;29.20;21.30;;;-1.00;99.90;;;;;;5095925;28;20648;-73
2022/04/11 00:23:48;;;;;;;26.40;20.17;;;-1.10;99.90;;;;;;5095772;28;20275;-72
2022/04/11 00:26:16;;;;;;;31.53;21.73;;;-1.30;99.90;;;;;;5095756;28;20196;-73
2022/04/11 00:28:43;;;;;;;32.27;20.17;;;-1.20;99.90;;;;;;5095554;28;20201;-72
2022/04/11 00:31:09;;;;;;;34.43;21.90;;;-1.20;99.90;;;;;;5095894;28;20203;-73
2022/04/11 00:33:36;;;;;;;29.13;21.33;;;-1.10;99.90;;;;;;5095758;28;20254;-73
2022/04/11 00:36:03;;;;;;;26.27;19.47;;;-1.00;99.90;;;;;;5095484;28;20269;-73
2022/04/11 00:38:29;;;;;;;32.13;21.13;;;-1.10;99.90;;;;;;5095573;28;20204;-73
2022/04/11 00:40:56;;;;;;;27.13;19.13;;;-1.00;99.90;;;;;;5095352;28;20193;-72
2022/04/11 00:43:37;;;;;;;29.23;20.50;;;-1.10;99.90;;;;;;5095399;28;20644;-73
2022/04/11 00:46:05;;;;;;;30.33;19.57;;;-1.30;99.90;;;;;;5095810;28;20250;-73
2022/04/11 00:48:32;;;;;;;29.53;20.97;;;-1.30;99.90;;;;;;5096052;28;20200;-73
2022/04/11 00:51:03;;;;;;;31.70;22.13;;;-1.10;99.90;;;;;;5097500;28;20204;-73
2022/04/11 00:53:31;;;;;;;33.83;21.23;;;-1.00;99.90;;;;;;5100696;28;20205;-73
2022/04/11 00:55:59;;;;;;;35.17;23.20;;;-1.10;99.90;;;;;;5102946;28;20215;-73
2022/04/11 00:58:27;;;;;;;36.17;22.53;;;-1.20;99.90;;;;;;5102302;28;20200;-73
2022/04/11 01:00:55;;;;;;;30.60;22.27;;;-1.20;99.90;;;;;;5102353;28;20197;-73
2022/04/11 01:03:22;;;;;;;28.90;21.93;;;-1.20;99.90;;;;;;5098759;28;20201;-72
2022/04/11 01:05:49;;;;;;;38.00;24.27;;;-1.30;99.90;;;;;;5095591;28;20640;-72
2022/04/11 01:08:17;;;;;;;37.63;23.97;;;-1.10;99.90;;;;;;5095308;28;20192;-72
2022/04/11 01:10:44;;;;;;;37.57;23.03;;;-1.10;99.90;;;;;;5095531;28;20201;-72
2022/04/11 01:13:11;;;;;;;31.30;23.40;;;-1.30;99.90;;;;;;5095365;28;20199;-72
2022/04/11 01:15:37;;;;;;;37.90;23.40;;;-1.30;99.90;;;;;;5095510;28;20200;-72
2022/04/11 01:18:05;;;;;;;31.70;21.67;;;-1.40;99.90;;;;;;5095221;28;20193;-72
2022/04/11 01:20:32;;;;;;;30.70;21.87;;;-1.50;99.90;;;;;;5095425;28;20583;-73
2022/04/11 01:23:00;;;;;;;35.37;23.20;;;-1.40;99.90;;;;;;5094972;28;20301;-72
2022/04/11 01:25:27;;;;;;;33.47;22.23;;;-1.40;99.90;;;;;;5095307;28;20300;-72
2022/04/11 01:27:54;;;;;;;38.90;23.97;;;-1.40;99.90;;;;;;5095041;28;20205;-72
2022/04/11 01:30:21;;;;;;;36.43;22.77;;;-1.40;99.90;;;;;;5095165;28;20193;-72
2022/04/11 01:32:48;;;;;;;33.13;22.33;;;-1.40;99.90;;;;;;5095208;28;20199;-72
2022/04/11 01:35:19;;;;;;;32.00;21.67;;;-1.50;99.90;;;;;;5094984;28;20199;-72
2022/04/11 01:37:46;;;;;;;36.60;23.10;;;-1.70;99.90;;;;;;5095229;28;20204;-73
2022/04/11 01:40:14;;;;;;;35.43;23.93;;;-1.60;99.90;;;;;;5094860;28;20203;-72
2022/04/11 01:42:42;;;;;;;32.30;22.57;;;-1.60;99.90;;;;;;5094630;28;20196;-72
2022/04/11 01:45:10;;;;;;;35.57;22.70;;;-1.50;99.90;;;;;;5094406;28;20270;-72
2022/04/11 01:47:37;;;;;;;33.03;21.47;;;-1.60;99.90;;;;;;5094279;28;20200;-72
2022/04/11 01:50:05;;;;;;;36.67;24.63;;;-1.70;99.90;;;;;;5094332;28;20200;-73
2022/04/11 01:52:31;;;;;;;34.77;23.50;;;-1.50;99.90;;;;;;5094381;28;20268;-72
2022/04/11 01:54:58;;;;;;;37.07;24.17;;;-1.50;99.90;;;;;;5093973;28;20230;-72
2022/04/11 01:57:26;;;;;;;34.90;23.27;;;-1.50;99.90;;;;;;5094248;28;20609;-73
2022/04/11 01:59:53;;;;;;;38.77;23.27;;;-1.60;99.90;;;;;;5094053;28;20199;-73
2022/04/11 02:02:19;;;;;;;33.10;22.87;;;-1.50;99.90;;;;;;5094071;28;20731;-72
2022/04/11 02:04:46;;;;;;;34.13;24.57;;;-1.70;99.90;;;;;;5093071;28;20220;-72
2022/04/11 02:07:12;;;;;;;32.27;23.77;;;-1.60;99.90;;;;;;5094174;28;20568;-72
2022/04/11 02:09:39;;;;;;;33.77;23.80;;;-1.70;99.90;;;;;;5094188;28;20203;-72
2022/04/11 02:12:06;;;;;;;36.17;24.33;;;-1.50;99.90;;;;;;5094343;28;20635;-72
2022/04/11 02:14:34;;;;;;;36.33;23.87;;;-1.50;99.90;;;;;;5093868;28;20198;-72
2022/04/11 02:17:01;;;;;;;35.73;22.87;;;-1.70;99.90;;;;;;5093920;28;20203;-72
2022/04/11 02:19:28;;;;;;;34.50;23.87;;;-1.70;99.90;;;;;;5093880;28;20536;-72
2022/04/11 02:21:54;;;;;;;35.83;25.40;;;-1.70;99.90;;;;;;5093805;28;20193;-72
2022/04/11 02:24:21;;;;;;;36.07;24.23;;;-1.50;99.90;;;;;;5093520;28;20236;-72
2022/04/11 02:26:47;;;;;;;39.83;25.67;;;-1.50;99.90;;;;;;5093537;28;20256;-72
2022/04/11 02:29:14;;;;;;;38.80;25.70;;;-1.50;99.90;;;;;;5093749;28;20198;-72
2022/04/11 02:31:42;;;;;;;37.80;25.77;;;-1.40;99.90;;;;;;5093489;28;20651;-72
2022/04/11 02:34:09;;;;;;;37.80;25.27;;;-1.30;99.90;;;;;;5093671;28;20221;-72
2022/04/11 02:36:35;;;;;;;42.07;27.43;;;-1.30;99.90;;;;;;5093689;28;20195;-71
2022/04/11 02:39:02;;;;;;;37.43;25.93;;;-1.30;99.90;;;;;;5093724;28;20260;-72
2022/04/11 02:41:28;;;;;;;40.40;25.20;;;-1.30;99.90;;;;;;5093429;28;20198;-72
2022/04/11 02:43:55;;;;;;;43.97;27.40;;;-1.30;99.90;;;;;;5093393;28;20192;-72
2022/04/11 02:46:22;;;;;;;42.03;27.10;;;-1.20;99.90;;;;;;5093486;28;20228;-72
2022/04/11 02:48:50;;;;;;;38.23;25.53;;;-1.20;99.90;;;;;;5093555;28;20279;-72
2022/04/11 02:51:16;;;;;;;39.90;26.00;;;-1.20;99.90;;;;;;5093693;28;20520;-72
2022/04/11 02:53:43;;;;;;;38.77;27.10;;;-1.20;99.90;;;;;;5094316;28;20200;-72
2022/04/11 02:56:10;;;;;;;37.23;25.60;;;-1.10;99.90;;;;;;5094155;28;20204;-72
2022/04/11 02:58:36;;;;;;;42.73;25.93;;;-1.00;99.90;;;;;;5093917;28;20200;-72
2022/04/11 03:01:03;;;;;;;38.17;26.53;;;-1.00;99.90;;;;;;5094065;28;20192;-72
2022/04/11 03:03:29;;;;;;;40.53;26.20;;;-1.00;99.90;;;;;;5093917;28;20200;-72
2022/04/11 03:05:57;;;;;;;38.10;26.87;;;-0.90;99.90;;;;;;5094707;28;20227;-72
2022/04/11 03:08:24;;;;;;;38.97;25.50;;;-1.10;99.90;;;;;;5100301;28;20196;-72
2022/04/11 03:10:51;;;;;;;34.70;24.83;;;-1.10;99.90;;;;;;5101579;28;20222;-73
2022/04/11 03:13:17;;;;;;;38.67;25.17;;;-1.10;99.90;;;;;;5101251;28;20196;-73
2022/04/11 03:15:44;;;;;;;37.97;26.70;;;-0.90;99.90;;;;;;5103363;28;20647;-72
2022/04/11 03:18:10;;;;;;;40.07;26.93;;;-1.10;99.90;;;;;;5106569;28;20233;-72
2022/04/11 03:20:37;;;;;;;38.90;25.17;;;-1.00;99.90;;;;;;5106175;28;20253;-72
2022/04/11 03:23:05;;;;;;;38.97;25.80;;;-1.10;99.90;;;;;;5100347;28;20241;-72
2022/04/11 03:25:32;;;;;;;40.17;25.77;;;-1.00;99.90;;;;;;5098972;28;20224;-72
2022/04/11 03:27:59;;;;;;;42.33;26.93;;;-1.00;99.90;;;;;;5099224;28;20269;-72
2022/04/11 03:30:26;;;;;;;37.00;26.70;;;-1.00;99.90;;;;;;5098080;28;20203;-72
2022/04/11 03:32:52;;;;;;;41.10;27.27;;;-1.00;99.90;;;;;;5097695;28;20192;-72
2022/04/11 03:35:19;;;;;;;39.93;26.80;;;-1.00;99.90;;;;;;5097486;28;20601;-72
2022/04/11 03:37:45;;;;;;;35.60;25.30;;;-1.00;99.90;;;;;;5097366;28;20203;-72
2022/04/11 03:40:14;;;;;;;37.57;25.53;;;-0.90;99.90;;;;;;5097537;28;20196;-72
2022/04/11 03:42:40;;;;;;;37.10;26.63;;;-0.90;99.90;;;;;;5099369;28;20359;-72
2022/04/11 03:45:10;;;;;;;36.90;25.70;;;-0.90;99.90;;;;;;5097016;28;20228;-72
2022/04/11 03:47:37;;;;;;;40.03;25.40;;;-0.90;99.90;;;;;;5096838;28;20201;-72
2022/04/11 03:50:04;;;;;;;39.93;27.03;;;-0.90;99.90;;;;;;5096679;28;20242;-72
2022/04/11 03:52:31;;;;;;;42.27;26.33;;;-0.90;99.90;;;;;;5096359;28;20717;-72
2022/04/11 03:54:58;;;;;;;39.13;26.13;;;-0.90;99.90;;;;;;5096535;28;20201;-72
2022/04/11 03:57:26;;;;;;;37.27;26.43;;;-0.90;99.90;;;;;;5096716;28;20743;-72
2022/04/11 03:59:53;;;;;;;40.33;27.00;;;-0.90;99.90;;;;;;5096805;28;20197;-73
2022/04/11 04:02:21;;;;;;;41.03;26.63;;;-0.90;99.90;;;;;;5096546;28;20608;-72
2022/04/11 04:04:48;;;;;;;36.07;25.80;;;-0.90;99.90;;;;;;5096511;28;20269;-73
2022/04/11 04:07:14;;;;;;;44.03;27.27;;;-0.90;99.90;;;;;;5096151;28;20227;-72
2022/04/11 04:09:41;;;;;;;41.70;27.50;;;-0.90;99.90;;;;;;5096294;28;20575;-72
2022/04/11 04:12:09;;;;;;;36.70;26.33;;;-0.90;99.90;;;;;;5095988;28;20197;-72
2022/04/11 04:14:38;;;;;;;38.60;26.47;;;-1.00;99.90;;;;;;5096139;28;20192;-72
2022/04/11 04:17:05;;;;;;;42.20;27.53;;;-0.90;99.90;;;;;;5096388;28;20196;-72
2022/04/11 04:19:31;;;;;;;38.97;27.17;;;-0.90;99.90;;;;;;5095938;28;20204;-72
2022/04/11 04:21:58;;;;;;;39.57;27.23;;;-0.90;99.90;;;;;;5095939;28;20223;-72
2022/04/11 04:24:25;;;;;;;40.57;26.90;;;-0.90;99.90;;;;;;5095900;28;20247;-72
2022/04/11 04:26:52;;;;;;;40.87;26.67;;;-0.80;99.90;;;;;;5095240;28;20315;-72
2022/04/11 04:29:18;;;;;;;41.77;27.40;;;-0.80;99.90;;;;;;5096509;28;20671;-72
2022/04/11 04:31:47;;;;;;;37.67;26.97;;;-0.80;99.90;;;;;;5101240;28;20200;-72
2022/04/11 04:34:14;;;;;;;44.67;29.23;;;-0.80;99.90;;;;;;5100317;28;20200;-72
2022/04/11 04:36:41;;;;;;;42.37;28.73;;;-0.70;99.90;;;;;;5102748;28;20208;-72
2022/04/11 04:39:08;;;;;;;44.57;28.83;;;-0.70;99.90;;;;;;5104722;28;20192;-72
2022/04/11 04:41:34;;;;;;;48.90;28.30;;;-0.70;99.90;;;;;;5105279;28;20192;-72
2022/04/11 04:44:01;;;;;;;41.57;28.43;;;-0.70;99.90;;;;;;5103742;28;20232;-72
2022/04/11 04:46:28;;;;;;;43.03;28.83;;;-0.70;99.90;;;;;;5104335;28;20220;-72
2022/04/11 04:48:57;;;;;;;44.70;27.70;;;-0.60;99.90;;;;;;5102830;28;20251;-72
2022/04/11 04:51:24;;;;;;;41.17;26.87;;;-0.60;99.90;;;;;;5095853;28;20197;-72
2022/04/11 04:53:50;;;;;;;43.07;27.50;;;-0.60;99.90;;;;;;5095724;28;20602;-72
2022/04/11 04:56:17;;;;;;;40.47;27.80;;;-0.50;99.90;;;;;;5095262;28;20278;-72
2022/04/11 04:58:45;;;;;;;42.83;27.37;;;-0.50;99.90;;;;;;5095191;28;20204;-72
2022/04/11 05:01:12;;;;;;;43.23;29.63;;;-0.40;99.90;;;;;;5095044;28;20273;-72
2022/04/11 05:03:39;;;;;;;52.73;29.80;;;-0.40;99.90;;;;;;5094741;28;20529;-72
2022/04/11 05:06:07;;;;;;;42.77;28.33;;;-0.30;99.90;;;;;;5094989;28;20220;-72
2022/04/11 05:08:33;;;;;;;40.77;28.77;;;-0.30;99.90;;;;;;5094913;28;20243;-72
2022/04/11 05:11:00;;;;;;;48.03;28.60;;;-0.40;99.90;;;;;;5095082;28;20242;-72
2022/04/11 05:13:27;;;;;;;44.23;28.77;;;-0.30;99.90;;;;;;5094862;28;20597;-72
2022/04/11 05:15:54;;;;;;;40.40;27.70;;;-0.30;99.90;;;;;;5094641;28;20196;-72
2022/04/11 05:18:20;;;;;;;35.57;27.40;;;-0.20;99.90;;;;;;5094520;28;20192;-73
2022/04/11 05:20:47;;;;;;;37.43;27.43;;;-0.10;99.90;;;;;;5094859;28;20614;-72
2022/04/11 05:23:15;;;;;;;43.90;27.70;;;0.00;99.90;;;;;;5094538;28;20245;-72
2022/04/11 05:25:42;;;;;;;40.57;27.57;;;0.00;99.90;;;;;;5094826;28;20628;-72
2022/04/11 05:28:09;;;;;;;43.93;27.90;;;0.10;99.90;;;;;;5094646;28;20192;-73
2022/04/11 05:30:35;;;;;;;41.67;27.20;;;0.10;99.90;;;;;;5094900;28;20200;-72
2022/04/11 05:33:02;;;;;;;38.57;26.80;;;0.20;99.90;;;;;;5094712;28;20200;-73
2022/04/11 05:35:29;;;;;;;39.47;25.50;;;0.20;99.90;;;;;;5094785;28;20201;-72
2022/04/11 05:37:55;;;;;;;37.10;24.77;;;0.30;99.90;;;;;;5094217;28;20200;-73
2022/04/11 05:40:23;;;;;;;37.20;24.87;;;0.40;99.90;;;;;;5094614;28;20254;-72
2022/04/11 05:42:50;;;;;;;34.97;24.80;;;0.50;99.90;;;;;;5094384;28;20200;-73
2022/04/11 05:45:17;;;;;;;32.80;23.70;;;0.50;99.90;;;;;;5094512;28;20200;-73
2022/04/11 05:47:43;;;;;;;29.40;22.97;;;0.60;99.90;;;;;;5094288;28;20780;-73
2022/04/11 05:50:10;;;;;;;34.17;22.63;;;0.60;99.90;;;;;;5094635;28;20196;-72
2022/04/11 05:52:37;;;;;;;31.40;23.13;;;0.70;99.90;;;;;;5094339;28;20196;-73
2022/04/11 05:55:05;;;;;;;28.70;22.50;;;0.80;99.90;;;;;;5094192;28;20218;-72
2022/04/11 05:57:33;;;;;;;29.23;21.57;;;0.80;99.90;;;;;;5094208;28;20253;-72
2022/04/11 05:59:59;;;;;;;27.53;21.23;;;0.90;99.90;;;;;;5094178;28;20204;-73
2022/04/11 06:02:26;;;;;;;28.23;20.63;;;0.90;99.90;;;;;;5094260;28;20265;-73
2022/04/11 06:04:53;;;;;;;27.33;19.67;;;1.00;99.90;;;;;;5094357;28;20197;-74
2022/04/11 06:07:21;;;;;;;33.87;21.50;;;1.00;99.90;;;;;;5096051;28;20223;-72
2022/04/11 06:09:48;;;;;;;32.50;21.53;;;1.00;99.90;;;;;;5094889;28;20644;-73
2022/04/11 06:12:15;;;;;;;34.20;22.87;;;1.00;99.90;;;;;;5094868;28;20200;-73
2022/04/11 06:14:43;;;;;;;33.07;22.33;;;1.00;99.90;;;;;;5097032;28;20203;-74
2022/04/11 06:17:09;;;;;;;31.47;24.07;;;1.00;99.90;;;;;;5095487;28;20204;-73
2022/04/11 06:19:36;;;;;;;29.90;22.10;;;1.10;99.90;;;;;;5098197;28;20246;-73
2022/04/11 06:22:03;;;;;;;31.67;22.67;;;1.20;99.90;;;;;;5098189;28;20197;-74
2022/04/11 06:24:30;;;;;;;29.90;21.27;;;1.20;99.90;;;;;;5099806;28;20565;-74
2022/04/11 06:26:56;;;;;;;32.67;22.13;;;1.30;99.90;;;;;;5100548;28;20270;-73
2022/04/11 06:29:23;;;;;;;36.43;22.60;;;1.30;99.90;;;;;;5097204;28;20201;-73
2022/04/11 06:31:51;;;;;;;32.40;22.00;;;1.40;99.90;;;;;;5094478;28;20598;-73
2022/04/11 06:34:17;;;;;;;34.83;21.10;;;1.50;99.90;;;;;;5095932;28;20196;-72
2022/04/11 06:36:44;;;;;;;33.70;21.60;;;1.60;99.90;;;;;;5094111;28;20253;-72
2022/04/11 06:39:11;;;;;;;29.50;19.77;;;1.70;99.90;;;;;;5093770;28;20200;-72
2022/04/11 06:41:37;;;;;;;27.87;20.50;;;1.80;99.90;;;;;;5093961;28;20221;-73
2022/04/11 06:44:04;;;;;;;32.13;20.07;;;1.90;99.90;;;;;;5093772;28;20196;-72
2022/04/11 06:46:31;;;;;;;28.93;21.10;;;2.00;99.90;;;;;;5093852;28;20222;-73
2022/04/11 06:48:59;;;;;;;26.43;20.20;;;2.00;99.90;;;;;;5093928;28;20626;-72
2022/04/11 06:51:26;;;;;;;27.27;18.50;;;2.10;99.90;;;;;;5101566;28;20716;-74
2022/04/11 06:53:52;;;;;;;23.70;17.90;;;2.20;99.90;;;;;;5100604;28;20199;-73
2022/04/11 06:56:19;;;;;;;23.43;18.03;;;2.30;99.90;;;;;;5100382;28;20212;-74
2022/04/11 06:58:46;;;;;;;23.23;17.23;;;2.40;99.90;;;;;;5100260;28;20245;-74
2022/04/11 07:01:12;;;;;;;20.07;16.27;;;2.50;99.90;;;;;;5100356;28;20273;-74
2022/04/11 07:03:39;;;;;;;25.57;17.60;;;2.70;99.90;;;;;;5100360;28;20200;-74
2022/04/11 07:06:07;;;;;;;19.23;16.27;;;2.80;99.90;;;;;;5100067;28;20245;-74
2022/04/11 07:08:33;;;;;;;20.87;15.77;;;3.00;99.90;;;;;;5099886;28;20191;-74
2022/04/11 07:11:00;;;;;;;18.47;15.13;;;3.10;99.90;;;;;;5100386;28;20204;-74
2022/04/11 07:13:27;;;;;;;22.73;15.97;;;3.20;99.90;;;;;;5100373;28;20196;-73
2022/04/11 07:15:54;;;;;;;18.97;15.33;;;3.40;99.90;;;;;;5099879;28;20648;-73
2022/04/11 07:18:21;;;;;;;15.80;13.80;;;3.60;99.90;;;;;;5100565;28;20204;-74
2022/04/11 07:20:47;;;;;;;18.23;14.20;;;3.70;99.90;;;;;;5099998;28;20196;-74
2022/04/11 07:23:15;;;;;;;17.43;13.67;;;3.80;99.90;;;;;;5099834;28;20196;-74
2022/04/11 07:25:42;;;;;;;19.60;14.57;;;4.00;99.90;;;;;;5100284;28;20341;-74
2022/04/11 07:28:10;;;;;;;14.40;12.40;;;4.10;99.90;;;;;;5099796;28;20760;-74
2022/04/11 07:30:37;;;;;;;16.50;12.03;;;4.20;99.90;;;;;;5100083;28;20236;-74
2022/04/11 07:33:03;;;;;;;18.00;12.33;;;4.30;99.90;;;;;;5100118;28;20214;-74
2022/04/11 07:35:30;;;;;;;15.53;12.03;;;4.40;99.90;;;;;;5100019;28;20242;-74
2022/04/11 07:37:57;;;;;;;13.90;10.77;;;4.60;99.90;;;;;;5100040;28;20202;-74
2022/04/11 07:40:26;;;;;;;14.50;10.97;;;4.70;99.90;;;;;;5099968;28;20715;-74
2022/04/11 07:42:53;;;;;;;14.40;9.37;;;4.90;99.90;;;;;;5099973;28;20194;-74
2022/04/11 07:45:20;;;;;;;14.50;11.00;;;5.00;99.90;;;;;;5100535;28;20198;-74
2022/04/11 07:47:47;;;;;;;16.30;9.93;;;5.20;99.90;;;;;;5099743;28;20225;-74
2022/04/11 07:50:13;;;;;;;10.43;8.20;;;5.40;99.90;;;;;;5099814;28;20203;-74
2022/04/11 07:52:42;;;;;;;10.90;8.73;;;5.60;99.90;;;;;;5099998;28;20203;-74
2022/04/11 07:55:12;;;;;;;11.27;8.60;;;5.80;99.90;;;;;;5099825;28;20219;-73
2022/04/11 07:57:40;;;;;;;9.63;8.23;;;5.90;99.90;;;;;;5099778;28;20283;-74
2022/04/11 08:00:08;;;;;;;13.83;8.30;;;6.10;99.90;;;;;;5099265;28;20196;-74
2022/04/11 08:02:35;;;;;;;13.80;7.70;;;6.30;99.90;;;;;;5096657;28;20685;-74
2022/04/11 08:05:02;;;;;;;9.70;7.03;;;6.60;99.90;;;;;;5095805;28;20247;-74
2022/04/11 08:07:31;;;;;;;8.07;6.97;;;6.90;99.90;;;;;;5095901;28;20575;-74
2022/04/11 08:09:58;;;;;;;8.27;7.03;;;7.00;99.90;;;;;;5095922;28;20200;-74
2022/04/11 08:12:24;;;;;;;8.53;6.63;;;7.20;99.90;;;;;;5095768;28;20211;-74
2022/04/11 08:14:52;;;;;;;9.33;6.70;;;7.30;99.90;;;;;;5095668;28;20643;-73
2022/04/11 08:17:19;;;;;;;8.90;7.03;;;7.50;99.90;;;;;;5095533;28;20200;-74
2022/04/11 08:19:46;;;;;;;9.00;6.43;;;7.70;99.90;;;;;;5095626;28;20196;-73
2022/04/11 08:22:12;;;;;;;9.23;6.97;;;7.80;99.90;;;;;;5095610;28;20250;-74
2022/04/11 08:24:39;;;;;;;8.23;7.07;;;8.00;99.90;;;;;;5095332;28;20228;-74
2022/04/11 08:27:05;;;;;;;7.83;6.37;;;8.00;99.90;;;;;;5095299;28;20298;-74
2022/04/11 08:29:32;;;;;;;7.80;6.73;;;8.30;99.90;;;;;;5095240;28;20200;-74
2022/04/11 08:32:00;;;;;;;8.93;6.37;;;8.40;99.90;;;;;;5095174;28;20643;-74
2022/04/11 08:34:26;;;;;;;7.93;6.73;;;8.50;99.90;;;;;;5095421;28;20196;-74
2022/04/11 08:36:53;;;;;;;6.83;5.97;;;8.70;99.90;;;;;;5095347;28;20648;-74
2022/04/11 08:39:20;;;;;;;7.57;6.07;;;8.80;99.90;;;;;;5095141;28;20262;-74
2022/04/11 08:41:46;;;;;;;7.17;5.93;;;8.80;99.90;;;;;;5095041;28;20705;-75
2022/04/11 08:44:14;;;;;;;6.17;5.53;;;9.00;99.90;;;;;;5094989;28;20245;-75
2022/04/11 08:46:41;;;;;;;6.80;5.13;;;9.20;99.90;;;;;;5094922;28;20313;-74
2022/04/11 08:49:09;;;;;;;6.23;4.33;;;9.50;99.90;;;;;;5095062;28;20196;-74
2022/04/11 08:51:37;;;;;;;5.10;4.13;;;9.40;98.00;;;;;;5095064;28;20545;-74
2022/04/11 08:54:05;;;;;;;6.30;4.30;;;9.30;93.80;;;;;;5094765;28;20704;-74
2022/04/11 08:56:33;;;;;;;5.53;4.07;;;8.80;93.90;;;;;;5094797;28;20303;-74
2022/04/11 08:58:59;;;;;;;5.30;4.57;;;8.90;91.70;;;;;;5094694;28;20196;-74
2022/04/11 09:01:26;;;;;;;5.23;4.40;;;9.10;93.10;;;;;;5094831;28;20248;-74
2022/04/11 09:03:53;;;;;;;7.27;4.80;;;9.30;92.80;;;;;;5094788;28;20200;-74
2022/04/11 09:06:23;;;;;;;7.53;4.93;;;9.40;91.50;;;;;;5094652;28;20200;-74
2022/04/11 09:08:52;;;;;;;5.33;4.13;;;9.90;91.20;;;;;;5094443;28;20220;-74
2022/04/11 09:11:30;;;;;;;5.20;4.40;;;10.00;82.90;;;;;;5094658;28;20221;-74
2022/04/11 09:13:58;;;;;;;6.17;5.13;;;10.00;86.20;;;;;;5094138;28;20197;-74
2022/04/11 09:16:25;;;;;;;7.20;4.87;;;10.20;88.30;;;;;;5094535;28;20200;-74
2022/04/11 09:18:53;;;;;;;5.60;4.40;;;10.60;83.50;;;;;;5094460;28;20204;-74
2022/04/11 09:21:23;;;;;;;6.30;5.37;;;10.80;77.80;;;;;;5094401;28;20246;-74
2022/04/11 09:23:51;;;;;;;6.50;5.20;;;11.00;76.50;;;;;;5093963;28;20675;-74
2022/04/11 09:26:20;;;;;;;6.07;5.10;;;11.00;75.70;;;;;;5094082;28;20207;-74
2022/04/11 09:29:03;;;;;;;6.03;4.70;;;11.30;72.40;;;;;;5094240;28;20251;-74
2022/04/11 09:31:30;;;;;;;5.40;4.90;;;11.50;71.60;;;;;;5094284;28;20196;-74
2022/04/11 09:33:58;;;;;;;6.57;4.90;;;11.50;64.50;;;;;;5094240;28;20200;-74
2022/04/11 09:36:44;;;;;;;4.93;4.37;;;11.60;66.70;;;;;;5094030;28;20207;-74
2022/04/11 09:39:11;;;;;;;6.20;4.60;;;11.80;60.10;;;;;;5094214;28;20196;-74
2022/04/11 09:41:43;;;;;;;6.17;5.03;;;12.20;59.70;;;;;;5093988;28;20196;-74
2022/04/11 09:44:27;;;;;;;7.37;4.50;;;12.50;58.60;;;;;;5094025;28;20199;-74
2022/04/11 09:46:55;;;;;;;5.67;4.60;;;12.30;56.40;;;;;;5093723;28;20200;-74
2022/04/11 09:49:22;;;;;;;4.70;4.20;;;12.00;55.10;;;;;;5093992;28;20254;-74
2022/04/11 09:52:11;;;;;;;7.33;4.63;;;12.50;53.40;;;;;;5093912;28;20200;-74
2022/04/11 09:54:42;;;;;;;5.03;4.30;;;12.30;51.00;;;;;;5093881;28;20199;-74
2022/04/11 09:57:09;;;;;;;4.27;3.83;;;12.50;50.60;;;;;;5093721;28;20302;-73
2022/04/11 09:59:36;;;;;;;5.30;3.73;;;13.00;47.60;;;;;;5093545;28;20562;-74
2022/04/11 10:02:05;;;;;;;5.63;4.57;;;13.20;46.60;;;;;;5093901;28;20227;-75
2022/04/11 10:04:32;;;;;;;6.30;4.85;;;13.30;47.00;;;;;;5093764;28;20219;-75
2022/04/11 10:06:59;;;;;;;6.10;4.55;;;13.80;47.20;;;;;;5093639;28;20232;-75
2022/04/11 10:09:27;;;;;;;5.32;4.60;;;14.00;48.00;;;;;;5093575;28;20643;-75
2022/04/11 10:11:55;;;;;;;5.90;4.43;;;14.00;44.90;;;;;;5093315;28;20200;-74
2022/04/11 10:14:25;;;;;;;5.05;4.13;;;14.10;44.50;;;;;;5093420;28;20253;-74
2022/04/11 10:16:54;;;;;;;5.43;4.70;;;14.50;43.80;;;;;;5093536;28;20196;-74
2022/04/11 10:19:33;;;;;;;5.22;4.35;;;14.90;43.20;;;;;;5093523;28;20249;-73
2022/04/11 10:22:04;;;;;;;4.90;4.18;;;14.90;40.80;;;;;;5093136;28;20196;-75
2022/04/11 10:24:34;;;;;;;6.43;4.10;;;15.10;41.00;;;;;;5092436;28;20311;-78
2022/04/11 10:27:20;;;;;;;5.53;4.68;;;15.50;38.80;;;;;;5092984;28;20196;-74
2022/04/11 10:29:48;;;;;;;5.32;4.57;;;14.80;38.00;;;;;;5093320;28;20197;-75
2022/04/11 10:32:16;;;;;;;6.22;4.90;;;14.40;37.40;;;;;;5093141;28;20199;-76
2022/04/11 10:34:48;;;;;;;5.88;4.47;;;14.70;36.90;;;;;;5093061;28;20272;-76
2022/04/11 10:37:16;;;;;;;4.95;4.40;;;15.00;36.50;;;;;;5092538;28;20253;-76
2022/04/11 10:39:44;;;;;;;7.10;4.72;;;15.60;37.50;;;;;;5093054;28;20201;-76
2022/04/11 10:42:20;;;;;;;6.15;4.60;;;16.20;37.10;;;;;;5092610;28;20286;-76
2022/04/11 10:44:48;;;;;;;6.00;4.40;;;17.20;36.30;;;;;;5092650;28;20825;-75
2022/04/11 10:47:31;;;;;;;5.13;4.57;;;17.70;35.30;;;;;;5093069;28;20200;-76
2022/04/11 10:50:26;;;;;;;4.50;4.07;;;18.10;33.80;;;;;;5092869;28;20227;-77
2022/04/11 10:53:22;;;;;;;6.80;4.80;;;18.40;29.90;;;;;;5092884;28;20200;-76
2022/04/11 10:56:05;;;;;;;5.25;4.47;;;18.40;29.50;;;;;;5092698;28;20287;-76
2022/04/11 10:58:47;;;;;;;5.22;4.53;;;18.70;28.50;;;;;;5092716;28;20620;-77
2022/04/11 11:01:14;;;;;;;4.60;4.20;;;18.90;27.70;;;;;;5092866;28;20207;-76
2022/04/11 11:03:57;;;;;;;4.90;4.00;;;17.20;28.60;;;;;;5093005;28;20200;-78
2022/04/11 11:06:24;;;;;;;4.63;4.20;;;18.40;27.80;;;;;;5092614;28;20655;-76
2022/04/11 11:08:51;;;;;;;4.15;3.75;;;19.20;27.20;;;;;;5092615;28;20695;-76
2022/04/11 11:11:27;;;;;;;4.07;3.67;;;19.40;26.30;;;;;;5092817;28;20192;-78
2022/04/11 11:13:56;;;;;;;4.32;3.90;;;20.30;25.30;;;;;;5092920;28;20342;-78
2022/04/11 11:16:29;;;;;;;5.90;3.70;;;20.50;23.40;;;;;;5092735;28;20200;-77
2022/04/11 11:19:17;;;;;;;4.63;3.47;;;21.50;24.00;;;;;;5092769;28;20574;-77
2022/04/11 11:22:08;;;;;;;3.95;3.33;;;21.90;22.60;;;;;;5092869;28;20200;-77
2022/04/11 11:24:35;;;;;;;5.55;3.67;;;22.50;21.50;;;;;;5081795;28;20220;-78
2022/04/11 11:27:06;;;;;;;4.85;3.72;;;22.60;20.80;;;;;;5092404;28;20200;-77
2022/04/11 11:29:35;;;;;;;5.60;3.35;;;22.30;21.50;;;;;;5092629;28;20223;-78
2022/04/11 11:32:04;;;;;;;4.78;3.70;;;22.90;21.10;;;;;;5093052;28;20196;-78
2022/04/11 11:34:33;;;;;;;5.43;3.70;;;23.00;20.30;;;;;;5092530;28;20197;-77
2022/04/11 11:37:01;;;;;;;4.93;3.55;;;23.30;19.60;;;;;;5094189;28;20705;-77
2022/04/11 11:39:29;;;;;;;4.35;3.47;;;23.10;18.40;;;;;;5096276;28;20200;-78
2022/04/11 11:42:02;;;;;;;4.43;3.65;;;22.60;19.70;;;;;;5096431;28;20265;-78
2022/04/11 11:44:52;;;;;;;6.25;3.75;;;22.10;20.10;;;;;;5096560;28;20203;-76
2022/04/11 11:47:27;;;;;;;3.63;3.10;;;23.00;19.40;;;;;;5096227;28;20214;-78
2022/04/11 11:50:01;;;;;;;4.25;3.83;;;22.80;17.40;;;;;;5096227;28;20204;-79
2022/04/11 11:52:28;;;;;;;3.88;3.10;;;22.20;18.50;;;;;;5096976;28;20200;-79
2022/04/11 11:54:55;;;;;;;5.13;2.92;;;22.50;18.60;;;;;;5096560;28;20652;-79
2022/04/11 11:57:23;;;;;;;3.50;3.00;;;23.00;17.60;;;;;;5096539;28;20196;-77
2022/04/11 11:59:53;;;;;;;4.10;3.10;;;23.50;17.50;;;;;;5095980;28;20229;-77
2022/04/11 12:05:16;;;;;;;3.55;3.25;;;23.60;16.20;;;;;;5096010;28;20666;-78
2022/04/11 12:07:42;;;;;;;4.28;3.08;;;23.70;16.50;;;;;;5095838;28;20196;-76
2022/04/11 12:10:09;;;;;;;3.85;2.90;;;23.80;15.30;;;;;;5095764;28;20222;-76
2022/04/11 12:12:36;;;;;;;3.28;2.97;;;24.80;16.00;;;;;;5095567;28;20200;-75
2022/04/11 12:15:06;;;;;;;5.63;3.40;;;24.90;15.90;;;;;;5098606;28;20260;-75
2022/04/11 12:17:34;;;;;;;5.20;2.90;;;25.00;15.30;;;;;;5096127;28;20197;-75
2022/04/11 12:20:09;;;;;;;4.30;3.30;;;25.10;15.00;;;;;;5096119;28;20200;-75
2022/04/11 12:22:36;;;;;;;3.65;3.25;;;25.80;14.20;;;;;;5095685;28;20711;-75
2022/04/11 12:25:21;;;;;;;5.20;3.38;;;25.90;14.10;;;;;;5095357;28;20231;-76
2022/04/11 12:27:49;;;;;;;4.25;3.03;;;25.90;13.60;;;;;;5095531;28;20249;-74
2022/04/11 12:30:18;;;;;;;5.05;4.05;;;25.90;13.60;;;;;;5095869;28;20204;-76
2022/04/11 12:32:45;;;;;;;4.90;3.80;;;24.70;13.70;;;;;;5095312;28;20200;-76
2022/04/11 12:35:17;;;;;;;4.13;3.40;;;23.90;14.40;;;;;;5095397;28;20200;-77
2022/04/11 12:37:49;;;;;;;5.68;3.05;;;23.90;14.70;;;;;;5095276;28;20200;-76
2022/04/11 12:40:16;;;;;;;4.35;2.95;;;24.60;15.00;;;;;;5095218;28;20553;-77
2022/04/11 12:42:44;;;;;;;5.10;3.50;;;25.10;14.80;;;;;;5095460;28;20196;-77
2022/04/11 12:45:13;;;;;;;4.70;4.18;;;25.50;14.20;;;;;;5095271;28;20192;-76
2022/04/11 12:48:05;;;;;;;4.70;4.20;;;25.90;13.60;;;;;;5094509;28;20207;-77